Accueil
METAR-TAF:

METAR-TAF

Aéroports :

Nakhon Phanom, Thaïlande

latitude: 17-23-02N, longitude: 104-38-35E, altitude: 179 m

Observation

Le bulletin a été fait il y a 43 minutes, à 01:00 UTC
Vent 5 kt de est, variant entre nord-est et est/sud-est
Température 23°C
Humidité 65%
Pression 1023 hPa
Visibilité 10 km ou plus
Quelques nuages à une hauteur de 3500 ft

METAR: VTUW 220100Z 09005KT 050V120 9999 FEW035 23/16 Q1023 NOSIG

Heure: 08:43 (01:43 UTC)

Prévision

Le bulletin a été fait il y a 2 heures et 43 minutes, à 23:00 UTC
Prévision valable du 22 à 00 UTC au 22 à 24 UTC
Vent 8 kt de est/sud-est
Visibilité: 9000 m

TAF: VTUW 212300Z 2200/2224 11008KT 9000 NSC

Observations et prévisions météorologiques de plus de 4000 aéroports (messages METAR et TAF).

Les stations disponibles sont représentées par des disques jaunes et rouges sur la carte.

Passer la souris dessus pour voir le nom de la station.

Cliquer dessus pour voir les observations et prévisions météorologiques.

Pour changer de carte: cliquez sur les boutons verts avec une croix noire pour zoomer, sur le bouton vert avec un tiret pour effectuer un zoom arrière, ou sur les flèches vertes pour les cartes adjacentes.


METAR-TAF: